Time;durP1;ratioP1;P1;durP2;ratioP2;P2;SDS_P1;SDS_P2;PMS_P1;PMS_P2;Temp;Humidity;BMP_temperature;BMP_pressure;BME280_temperature;BME280_humidity;BME280_pressure;Samples;Min_cycle;Max_cycle;Signal;HPM_P1;HPM_P2
2022/10/17 00:01:14;;;;;;;9.43;3.80;;;13.80;99.90;;;12.87;100.00;97887.22;5071259;28;20407;-73
2022/10/17 00:03:40;;;;;;;14.43;3.72;;;13.80;99.90;;;12.88;100.00;97888.81;5073541;28;20427;-72
2022/10/17 00:06:08;;;;;;;7.25;3.58;;;13.80;99.90;;;12.85;100.00;97884.03;5073974;28;20399;-72
2022/10/17 00:08:35;;;;;;;15.55;3.85;;;13.80;99.90;;;12.84;100.00;97895.69;5073818;28;20803;-72
2022/10/17 00:11:06;;;;;;;8.52;3.58;;;13.70;99.90;;;12.78;100.00;97886.84;5073867;28;20936;-72
2022/10/17 00:13:33;;;;;;;6.63;3.47;;;13.70;99.90;;;12.75;100.00;97887.38;5073483;28;20395;-72
2022/10/17 00:15:59;;;;;;;6.43;3.10;;;13.70;99.90;;;12.76;100.00;97894.31;5073518;28;20518;-72
2022/10/17 00:18:25;;;;;;;14.47;4.27;;;13.70;99.90;;;12.75;100.00;97892.69;5073707;28;20827;-72
2022/10/17 00:20:52;;;;;;;10.32;3.50;;;13.70;99.90;;;12.75;100.00;97894.56;5073687;28;20445;-72
2022/10/17 00:23:18;;;;;;;9.85;3.35;;;13.70;99.90;;;12.72;100.00;97900.34;5073144;28;20399;-72
2022/10/17 00:25:44;;;;;;;11.57;3.63;;;13.60;99.90;;;12.70;100.00;97905.94;5073436;28;20406;-72
2022/10/17 00:28:14;;;;;;;22.63;3.92;;;13.60;99.90;;;12.69;100.00;97907.00;5073633;28;20483;-73
2022/10/17 00:30:40;;;;;;;7.20;3.50;;;13.60;99.90;;;12.67;100.00;97911.75;5073486;28;20602;-73
2022/10/17 00:33:06;;;;;;;10.13;3.83;;;13.60;99.90;;;12.66;100.00;97909.34;5073030;28;20981;-72
2022/10/17 00:35:32;;;;;;;10.90;3.70;;;13.60;99.90;;;12.65;100.00;97913.03;5073226;28;20399;-72
2022/10/17 00:37:58;;;;;;;10.00;3.77;;;13.50;99.90;;;12.61;100.00;97912.75;5073292;28;20537;-72
2022/10/17 00:40:24;;;;;;;5.63;3.70;;;13.50;99.90;;;12.60;100.00;97916.47;5073319;28;20510;-72
2022/10/17 00:42:52;;;;;;;12.80;3.70;;;13.50;99.90;;;12.63;100.00;97915.16;5071700;28;20411;-73
2022/10/17 00:45:24;;;;;;;19.00;4.00;;;13.50;99.90;;;12.60;100.00;97913.00;5071865;28;20592;-73
2022/10/17 00:47:57;;;;;;;14.30;4.32;;;13.50;99.90;;;12.58;100.00;97907.94;5073178;28;20494;-73
2022/10/17 00:50:24;;;;;;;12.25;3.88;;;13.50;99.90;;;12.56;100.00;97903.91;5073194;28;20880;-73
2022/10/17 00:52:51;;;;;;;12.85;3.92;;;13.50;99.90;;;12.55;100.00;97910.31;5072624;28;20743;-73
2022/10/17 00:55:22;;;;;;;7.82;3.70;;;13.50;99.90;;;12.55;100.00;97912.97;5072878;28;20424;-72
2022/10/17 00:57:48;;;;;;;15.67;4.27;;;13.50;99.90;;;12.56;100.00;97901.25;5072983;28;20427;-72
2022/10/17 01:00:16;;;;;;;21.85;4.90;;;13.50;99.90;;;12.55;100.00;97913.75;5071527;28;20948;-73
2022/10/17 01:02:44;;;;;;;10.02;3.85;;;13.40;99.90;;;12.52;100.00;97910.78;5072671;28;20408;-73
2022/10/17 01:05:11;;;;;;;18.75;4.40;;;13.50;99.90;;;12.52;100.00;97911.59;5072680;28;20407;-73
2022/10/17 01:07:39;;;;;;;21.70;4.07;;;13.50;99.90;;;12.52;100.00;97913.44;5072709;28;20418;-73
2022/10/17 01:10:06;;;;;;;10.02;4.00;;;13.40;99.90;;;12.48;100.00;97907.81;5072830;28;20388;-73
2022/10/17 01:12:46;;;;;;;5.72;3.92;;;13.40;99.90;;;12.47;100.00;97908.91;5071716;28;20411;-73
2022/10/17 01:15:22;;;;;;;12.00;4.03;;;13.40;99.90;;;12.47;100.00;97916.06;5072318;28;20394;-73
2022/10/17 01:18:07;;;;;;;8.80;3.97;;;13.40;99.90;;;12.45;100.00;97911.00;5072695;28;20396;-73
2022/10/17 01:21:16;;;;;;;11.85;4.70;;;13.40;99.90;;;12.43;100.00;97913.09;5072715;28;20433;-72
2022/10/17 01:24:16;;;;;;;14.20;3.95;;;13.40;99.90;;;12.41;100.00;97909.88;5072118;28;20563;-73
2022/10/17 01:27:12;;;;;;;12.80;4.47;;;13.30;99.90;;;12.38;100.00;97907.72;5072227;28;20388;-72
2022/10/17 01:30:06;;;;;;;13.27;4.47;;;13.30;99.90;;;12.36;100.00;97915.13;5072357;28;20400;-72
2022/10/17 01:32:39;;;;;;;6.45;3.65;;;13.30;99.90;;;12.33;100.00;97905.00;5070559;28;20408;-72
2022/10/17 01:35:13;;;;;;;8.10;3.90;;;13.30;99.90;;;12.31;100.00;97907.94;5072134;28;20400;-73
2022/10/17 01:37:47;;;;;;;25.88;4.55;;;13.20;99.90;;;12.31;100.00;97913.25;5072240;28;20453;-72
2022/10/17 01:40:21;;;;;;;19.15;4.22;;;13.30;99.90;;;12.30;100.00;97902.88;5072189;28;20498;-72
2022/10/17 01:42:56;;;;;;;8.53;3.90;;;13.20;99.90;;;12.27;100.00;97906.81;5071730;28;20453;-74
2022/10/17 01:45:30;;;;;;;12.95;4.40;;;13.20;99.90;;;12.24;100.00;97912.63;5071954;28;20403;-72
2022/10/17 01:48:03;;;;;;;16.48;4.32;;;13.20;99.90;;;12.24;100.00;97909.97;5072194;28;20467;-72
2022/10/17 01:50:35;;;;;;;14.27;4.67;;;13.20;99.90;;;12.23;100.00;97904.91;5072055;28;20464;-72
2022/10/17 01:53:08;;;;;;;14.70;4.45;;;13.20;99.90;;;12.22;100.00;97905.97;5071509;28;20396;-72
2022/10/17 01:55:37;;;;;;;7.38;4.10;;;13.20;99.90;;;12.21;100.00;97901.69;5071873;28;20400;-73
2022/10/17 01:58:09;;;;;;;11.30;4.80;;;13.10;99.90;;;12.20;100.00;97903.53;5071915;28;20450;-72
2022/10/17 02:00:37;;;;;;;13.32;4.35;;;13.20;99.90;;;12.20;100.00;97898.25;5071762;28;20923;-73
2022/10/17 02:03:08;;;;;;;17.38;4.35;;;13.20;99.90;;;12.19;100.00;97901.94;5071389;28;20431;-72
2022/10/17 02:05:38;;;;;;;9.23;4.68;;;13.10;99.90;;;12.15;100.00;97900.84;5071538;28;20490;-72
2022/10/17 02:08:05;;;;;;;15.98;4.88;;;13.10;99.90;;;12.16;100.00;97894.50;5071646;28;20486;-73
2022/10/17 02:10:43;;;;;;;11.88;4.65;;;13.10;99.90;;;12.15;100.00;97892.06;5071628;28;20812;-73
2022/10/17 02:13:21;;;;;;;15.33;4.17;;;13.10;99.90;;;12.12;100.00;97890.72;5071315;28;20496;-73
2022/10/17 02:16:16;;;;;;;10.73;3.97;;;13.10;99.90;;;12.11;100.00;97897.06;5071322;28;20403;-73
2022/10/17 02:19:18;;;;;;;9.23;4.00;;;13.00;99.90;;;12.11;100.00;97894.41;5071339;28;20876;-72
2022/10/17 02:21:51;;;;;;;17.75;4.75;;;13.10;99.90;;;12.12;100.00;97897.88;5071262;28;20441;-72
2022/10/17 02:24:27;;;;;;;15.10;4.27;;;13.10;99.90;;;12.12;100.00;97897.88;5070781;28;20878;-72
2022/10/17 02:27:02;;;;;;;8.93;4.30;;;13.00;99.90;;;12.11;100.00;97890.94;5071176;28;20395;-72
2022/10/17 02:29:35;;;;;;;11.52;4.30;;;13.10;99.90;;;12.11;100.00;97898.91;5071289;28;20392;-73
2022/10/17 02:32:05;;;;;;;20.52;4.88;;;13.00;99.90;;;12.09;100.00;97901.03;5071186;28;20411;-73
2022/10/17 02:34:38;;;;;;;10.00;4.18;;;13.00;99.90;;;12.07;100.00;97903.94;5070615;28;20408;-73
2022/10/17 02:37:07;;;;;;;12.57;4.93;;;13.00;99.90;;;12.08;100.00;97912.69;5071021;28;20402;-73
2022/10/17 02:39:36;;;;;;;22.48;4.32;;;13.00;99.90;;;12.08;100.00;97912.69;5071052;28;20924;-73
2022/10/17 02:42:08;;;;;;;8.00;4.07;;;13.00;99.90;;;12.02;100.00;97910.00;5071137;28;20396;-73
2022/10/17 02:44:36;;;;;;;10.32;4.20;;;13.00;99.90;;;12.01;100.00;97918.19;5070439;28;20392;-73
2022/10/17 02:47:09;;;;;;;9.45;4.47;;;12.90;99.90;;;11.99;100.00;97915.78;5070821;28;20521;-72
2022/10/17 02:49:42;;;;;;;6.40;3.93;;;12.90;99.90;;;12.00;100.00;97920.03;5070912;28;20559;-72
2022/10/17 02:52:14;;;;;;;6.90;4.10;;;12.90;99.90;;;12.00;100.00;97919.25;5070889;28;20427;-72
2022/10/17 02:54:46;;;;;;;8.30;4.30;;;12.90;99.90;;;11.98;100.00;97914.16;5070243;28;20407;-72
2022/10/17 02:57:20;;;;;;;14.57;4.90;;;12.90;99.90;;;11.99;100.00;97915.78;5070706;28;20435;-72
2022/10/17 02:59:48;;;;;;;22.65;4.95;;;12.90;99.90;;;11.99;100.00;97909.66;5070621;28;20423;-72
2022/10/17 03:02:14;;;;;;;9.73;4.50;;;12.90;99.90;;;11.94;100.00;97915.72;5070733;28;20457;-72
2022/10/17 03:04:44;;;;;;;9.00;4.47;;;12.90;99.90;;;11.95;100.00;97919.19;5070239;28;20768;-73
2022/10/17 03:07:10;;;;;;;13.03;5.07;;;12.90;99.90;;;11.94;100.00;97913.06;5070605;28;20494;-72
2022/10/17 03:09:36;;;;;;;12.65;4.38;;;12.90;99.90;;;11.95;100.00;97913.88;5070577;28;20495;-73
2022/10/17 03:12:02;;;;;;;9.32;4.55;;;12.90;99.90;;;11.94;100.00;97914.91;5070605;28;20411;-72
2022/10/17 03:14:28;;;;;;;9.90;4.28;;;12.90;99.90;;;11.92;100.00;97912.50;5070099;28;20407;-72
2022/10/17 03:16:54;;;;;;;12.05;4.50;;;12.90;99.90;;;11.92;100.00;97917.81;5070202;28;20828;-72
2022/10/17 03:19:20;;;;;;;19.02;4.63;;;12.90;99.90;;;11.91;100.00;97918.06;5070497;28;20419;-72
2022/10/17 03:21:47;;;;;;;14.02;4.70;;;12.80;99.90;;;11.88;100.00;97915.88;5070593;28;20400;-72
2022/10/17 03:24:13;;;;;;;6.60;3.85;;;12.80;99.90;;;11.90;100.00;97921.75;5070067;28;20406;-72
2022/10/17 03:26:39;;;;;;;8.55;4.75;;;12.80;99.90;;;11.89;100.00;97918.28;5070235;28;20396;-72
2022/10/17 03:29:05;;;;;;;20.98;4.35;;;12.90;99.90;;;11.89;100.00;97920.16;5070463;28;21035;-73
2022/10/17 03:31:31;;;;;;;14.97;5.00;;;12.80;99.90;;;11.87;100.00;97923.06;5070495;28;20481;-73
2022/10/17 03:33:57;;;;;;;8.32;4.22;;;12.80;99.90;;;11.87;100.00;97930.22;5069902;28;20430;-73
2022/10/17 03:36:23;;;;;;;15.90;4.63;;;12.80;99.90;;;11.86;100.00;97928.59;5069580;28;20502;-72
2022/10/17 03:38:53;;;;;;;11.32;5.15;;;12.80;99.90;;;11.85;100.00;97933.09;5070286;28;20510;-73
2022/10/17 03:41:19;;;;;;;13.85;4.47;;;12.80;99.90;;;11.80;100.00;97930.38;5070253;28;20400;-73
2022/10/17 03:43:45;;;;;;;15.00;4.47;;;12.70;99.90;;;11.80;100.00;97925.06;5069904;28;20396;-73
2022/10/17 03:46:11;;;;;;;24.33;5.18;;;12.70;99.90;;;11.78;100.00;97929.84;5056601;28;20535;-73
2022/10/17 03:48:37;;;;;;;18.13;4.68;;;12.70;99.90;;;11.80;100.00;97933.03;5043354;28;20414;-72
2022/10/17 03:51:06;;;;;;;12.93;4.75;;;12.70;99.90;;;11.80;100.00;97934.91;5046949;28;20533;-73
2022/10/17 03:53:32;;;;;;;8.68;4.60;;;12.70;99.90;;;11.79;100.00;97931.44;5049325;28;20401;-73
2022/10/17 03:56:11;;;;;;;8.00;4.53;;;12.70;99.90;;;11.79;100.00;97925.34;5049875;28;20401;-73
2022/10/17 03:58:37;;;;;;;13.63;4.80;;;12.70;99.90;;;11.80;100.00;97932.25;5049749;28;20409;-72
2022/10/17 04:01:04;;;;;;;13.77;4.47;;;12.70;99.90;;;11.80;100.00;97930.38;5045294;28;20808;-72
2022/10/17 04:03:31;;;;;;;15.63;4.57;;;12.70;99.90;;;11.77;100.00;97940.69;5039081;28;20421;-72
2022/10/17 04:05:58;;;;;;;8.93;4.57;;;12.70;99.90;;;11.75;100.00;97938.28;5046293;28;20405;-72
2022/10/17 04:08:25;;;;;;;11.13;4.70;;;12.70;99.90;;;11.74;100.00;97941.13;5042869;28;20405;-72
2022/10/17 04:10:51;;;;;;;17.80;5.13;;;12.70;99.90;;;11.75;100.00;97956.84;5036990;28;20606;-72
2022/10/17 04:13:18;;;;;;;10.75;4.47;;;12.70;99.90;;;11.74;100.00;97946.44;5040114;28;20440;-72
2022/10/17 04:15:53;;;;;;;21.70;5.10;;;12.70;99.90;;;11.75;100.00;97950.72;5052177;22;20411;-75
2022/10/17 04:18:19;;;;;;;11.05;4.93;;;12.70;99.90;;;11.73;100.00;97950.16;5029417;28;20856;-75
2022/10/17 04:20:45;;;;;;;11.48;4.85;;;12.70;99.90;;;11.73;100.00;97958.13;5029407;28;20510;-74
2022/10/17 04:23:11;;;;;;;10.95;5.15;;;12.70;99.90;;;11.72;100.00;97957.31;5029063;28;20824;-75
2022/10/17 04:25:37;;;;;;;12.77;5.03;;;12.70;99.90;;;11.73;100.00;97960.75;5029357;28;20450;-74
2022/10/17 04:28:03;;;;;;;8.80;4.50;;;12.70;99.90;;;11.74;100.00;97957.03;5026806;28;20490;-74
2022/10/17 04:30:30;;;;;;;20.88;4.85;;;12.70;99.90;;;11.73;100.00;97958.88;5029620;28;20517;-76
2022/10/17 04:32:56;;;;;;;14.50;4.80;;;12.70;99.90;;;11.70;100.00;97963.91;5029422;28;20414;-76
2022/10/17 04:35:22;;;;;;;9.32;4.30;;;12.60;99.90;;;11.69;100.00;97968.41;5023504;28;20545;-75
2022/10/17 04:37:48;;;;;;;13.57;4.90;;;12.60;99.90;;;11.69;100.00;97964.94;5024691;28;20798;-75
2022/10/17 04:40:14;;;;;;;14.10;4.72;;;12.60;99.90;;;11.66;100.00;97971.53;5025309;28;20458;-75
2022/10/17 04:42:40;;;;;;;14.93;4.55;;;12.60;99.90;;;11.65;100.00;97968.06;5029373;28;20801;-75
2022/10/17 04:45:07;;;;;;;13.55;5.10;;;12.60;99.90;;;11.63;100.00;97964.88;5029497;28;20411;-75
2022/10/17 04:47:34;;;;;;;7.90;4.30;;;12.60;99.90;;;11.64;100.00;97966.47;5023981;28;20430;-76
2022/10/17 04:50:00;;;;;;;9.93;4.70;;;12.60;99.90;;;11.64;100.00;97961.19;5033053;28;20428;-76
2022/10/17 04:52:26;;;;;;;12.05;5.03;;;12.60;99.90;;;11.67;100.00;97957.22;5033179;28;20445;-75
2022/10/17 04:54:52;;;;;;;10.68;4.75;;;12.60;99.90;;;11.67;100.00;97959.88;5032682;28;20403;-75
2022/10/17 04:57:18;;;;;;;10.90;4.28;;;12.60;99.90;;;11.67;100.00;97961.72;5033129;28;20499;-75
2022/10/17 04:59:44;;;;;;;12.27;4.95;;;12.60;99.90;;;11.67;100.00;97964.38;5031420;28;20418;-75
2022/10/17 05:02:10;;;;;;;9.40;4.40;;;12.60;99.90;;;11.67;100.00;97969.66;5032841;28;20411;-75
2022/10/17 05:04:38;;;;;;;8.30;4.47;;;12.60;99.90;;;11.68;100.00;97971.28;5032072;28;20738;-75
2022/10/17 05:07:04;;;;;;;17.07;4.80;;;12.60;99.90;;;11.67;100.00;97972.31;5020687;28;20420;-75
2022/10/17 05:09:29;;;;;;;12.32;5.05;;;12.60;99.90;;;11.65;100.00;97976.03;5012917;28;20445;-75
2022/10/17 05:11:55;;;;;;;8.25;4.63;;;12.60;99.90;;;11.66;100.00;97971.53;5011914;28;20413;-76
2022/10/17 05:14:21;;;;;;;9.15;4.60;;;12.60;99.90;;;11.67;100.00;97967.03;5010298;28;20504;-75
2022/10/17 05:16:47;;;;;;;7.32;4.60;;;12.60;99.90;;;11.67;100.00;97961.72;5012545;28;20413;-75
2022/10/17 05:19:13;;;;;;;11.05;5.20;;;12.60;99.90;;;11.68;100.00;97969.44;5012858;28;20421;-75
2022/10/17 05:21:40;;;;;;;7.30;5.05;;;12.60;99.90;;;11.68;100.00;97958.03;5012713;28;20405;-75
2022/10/17 05:24:08;;;;;;;9.75;4.80;;;12.60;99.90;;;11.68;100.00;97965.97;5012502;28;20835;-75
2022/10/17 05:26:34;;;;;;;13.35;5.22;;;12.60;99.90;;;11.68;100.00;97958.03;5012476;28;20401;-75
2022/10/17 05:29:01;;;;;;;8.50;4.43;;;12.60;99.90;;;11.68;100.00;97961.47;5012669;28;20941;-74
2022/10/17 05:31:28;;;;;;;17.80;4.93;;;12.60;99.90;;;11.68;100.00;97971.28;5012708;28;20455;-75
2022/10/17 05:33:54;;;;;;;18.65;4.40;;;12.60;99.90;;;11.67;100.00;97961.72;5012260;28;20492;-75
2022/10/17 05:36:21;;;;;;;13.80;4.68;;;12.60;99.90;;;11.64;100.00;97963.84;5012363;28;20940;-75
2022/10/17 05:38:50;;;;;;;11.35;4.90;;;12.60;99.90;;;11.67;100.00;97965.16;5012472;28;20770;-74
2022/10/17 05:41:17;;;;;;;12.90;4.80;;;12.60;99.90;;;11.68;100.00;97973.94;5012538;28;20778;-75
2022/10/17 05:43:43;;;;;;;8.45;4.45;;;12.60;99.90;;;11.69;100.00;97965.75;5012111;28;20760;-74
2022/10/17 05:46:09;;;;;;;8.88;4.85;;;12.60;99.90;;;11.70;100.00;97975.31;5012142;28;20432;-74
2022/10/17 05:48:35;;;;;;;9.52;4.68;;;12.60;99.90;;;11.69;100.00;97976.34;5012437;28;20409;-74
2022/10/17 05:51:05;;;;;;;16.00;4.80;;;12.60;99.90;;;11.69;100.00;97980.84;5012303;28;20552;-74
2022/10/17 05:53:32;;;;;;;16.20;4.95;;;12.60;99.90;;;11.69;100.00;97975.53;5011870;28;20400;-74
2022/10/17 05:56:03;;;;;;;17.70;5.20;;;12.60;99.90;;;11.67;100.00;97978.44;5012028;28;20411;-75
2022/10/17 05:58:29;;;;;;;12.60;5.10;;;12.60;99.90;;;11.67;100.00;97982.94;5011848;28;20463;-74
2022/10/17 06:00:58;;;;;;;17.48;5.20;;;12.60;99.90;;;11.65;100.00;97981.31;5012009;28;20440;-75
2022/10/17 06:03:24;;;;;;;12.90;4.80;;;12.60;99.90;;;11.65;100.00;97985.84;5011704;28;20463;-75
2022/10/17 06:05:51;;;;;;;15.57;5.35;;;12.60;99.90;;;11.63;100.00;97991.38;5012023;28;20770;-74
2022/10/17 06:08:17;;;;;;;7.95;4.63;;;12.60;99.90;;;11.64;100.00;97995.66;5012031;28;20500;-75
2022/10/17 06:10:46;;;;;;;16.58;5.10;;;12.60;99.90;;;11.63;100.00;97991.38;5011998;28;20484;-74
2022/10/17 06:13:14;;;;;;;18.70;5.47;;;12.50;99.90;;;11.64;100.00;97986.88;5011732;28;20405;-74
2022/10/17 06:15:39;;;;;;;10.98;5.00;;;12.50;99.90;;;11.63;100.00;97987.94;5011468;28;20463;-74
2022/10/17 06:18:05;;;;;;;12.15;5.13;;;12.60;99.90;;;11.64;100.00;97987.69;5012057;28;20806;-74
2022/10/17 06:20:31;;;;;;;12.95;4.90;;;12.60;99.90;;;11.63;100.00;97994.03;5011874;28;20975;-74
2022/10/17 06:22:57;;;;;;;12.83;4.73;;;12.60;99.90;;;11.63;100.00;97982.63;5011310;28;20404;-75
2022/10/17 06:25:23;;;;;;;11.18;5.38;;;12.60;99.90;;;11.63;100.00;97991.38;5011444;28;20840;-74
2022/10/17 06:27:49;;;;;;;17.88;5.28;;;12.60;99.90;;;11.64;100.00;97989.53;5011758;28;20458;-74
2022/10/17 06:30:16;;;;;;;11.35;5.05;;;12.60;99.90;;;11.68;100.00;97995.16;5010368;28;20905;-74
2022/10/17 06:32:42;;;;;;;14.45;5.03;;;12.60;99.90;;;11.69;100.00;97992.25;5010119;28;20782;-74
2022/10/17 06:35:08;;;;;;;8.60;4.90;;;12.60;99.90;;;11.72;100.00;97998.94;5011300;28;20409;-74
2022/10/17 06:37:35;;;;;;;9.13;5.35;;;12.60;99.90;;;11.74;100.00;98005.63;5011516;28;20451;-74
2022/10/17 06:40:01;;;;;;;9.80;4.90;;;12.70;99.90;;;11.76;100.00;98000.06;5011474;28;20427;-74
2022/10/17 06:42:28;;;;;;;13.40;5.40;;;12.70;99.90;;;11.75;100.00;98004.56;5011558;28;20495;-74
2022/10/17 06:44:53;;;;;;;9.35;5.60;;;12.60;99.90;;;11.77;100.00;98012.28;5011047;28;20770;-74
2022/10/17 06:47:21;;;;;;;10.77;5.22;;;12.70;99.90;;;11.76;100.00;98024.75;5011291;28;20401;-74
2022/10/17 06:49:47;;;;;;;11.82;4.78;;;12.70;99.90;;;11.80;100.00;98028.50;5011285;28;20689;-74
2022/10/17 06:52:13;;;;;;;10.00;4.90;;;12.70;99.90;;;11.83;100.00;98035.19;5011272;28;20448;-75
2022/10/17 06:54:39;;;;;;;14.13;5.90;;;12.70;99.90;;;11.88;100.00;98038.72;5010715;28;20577;-75
2022/10/17 06:57:05;;;;;;;11.77;5.30;;;12.80;99.90;;;11.94;100.00;98045.72;5010923;28;20483;-75
2022/10/17 06:59:31;;;;;;;11.02;5.28;;;12.80;99.90;;;12.01;100.00;98050.84;5010988;28;20429;-74
2022/10/17 07:01:57;;;;;;;10.10;5.32;;;12.90;99.90;;;12.08;100.00;98042.72;5011057;28;20412;-74
2022/10/17 07:04:24;;;;;;;10.52;5.22;;;13.00;99.90;;;12.15;100.00;98038.84;5010676;28;20408;-75
2022/10/17 07:06:50;;;;;;;11.10;4.40;;;13.00;99.90;;;12.20;100.00;98046.06;5011006;28;20409;-75
2022/10/17 07:09:16;;;;;;;11.13;4.70;;;13.10;99.90;;;12.29;100.00;98048.06;5009712;28;20413;-75
2022/10/17 07:11:42;;;;;;;13.38;4.53;;;13.10;99.90;;;12.40;100.00;98049.00;5010185;28;20401;-74
2022/10/17 07:14:08;;;;;;;8.57;4.40;;;13.30;99.90;;;12.50;100.00;98054.44;5010484;28;20775;-74
2022/10/17 07:16:34;;;;;;;7.65;4.00;;;13.30;99.90;;;12.62;100.00;98054.31;5010623;28;20409;-74
2022/10/17 07:19:00;;;;;;;6.20;3.90;;;13.50;99.90;;;12.70;100.00;98054.69;5010802;28;20444;-75
2022/10/17 07:21:27;;;;;;;9.97;3.90;;;13.50;99.90;;;12.84;100.00;98056.97;5010792;28;20990;-74
2022/10/17 07:23:53;;;;;;;6.57;3.50;;;13.60;99.90;;;12.94;100.00;98060.50;5010380;28;20405;-74
2022/10/17 07:26:19;;;;;;;7.53;3.70;;;13.70;99.90;;;13.05;100.00;98064.09;5010399;28;20412;-74
2022/10/17 07:28:50;;;;;;;5.10;3.33;;;13.90;99.90;;;13.14;100.00;98054.66;5010723;28;20409;-74
2022/10/17 07:31:18;;;;;;;11.27;3.30;;;13.90;99.90;;;13.25;100.00;98055.53;5010698;28;20444;-74
2022/10/17 07:33:45;;;;;;;4.60;3.10;;;14.00;99.90;;;13.39;100.00;98054.06;5010145;28;20444;-74
2022/10/17 07:36:12;;;;;;;6.07;3.05;;;14.20;99.90;;;13.55;100.00;98055.81;5010629;28;20400;-74
2022/10/17 07:38:39;;;;;;;9.90;3.00;;;14.30;99.90;;;13.64;100.00;98056.16;5010614;28;20416;-74
2022/10/17 07:41:07;;;;;;;8.95;3.25;;;14.40;99.90;;;13.74;100.00;98057.06;5010576;28;20413;-73
2022/10/17 07:43:35;;;;;;;6.35;3.05;;;14.50;99.90;;;13.79;100.00;98069.59;5010194;28;20551;-74
2022/10/17 07:46:03;;;;;;;3.80;2.70;;;14.60;99.90;;;13.93;100.00;98070.75;5010399;28;20760;-74
2022/10/17 07:48:29;;;;;;;3.47;2.47;;;14.70;99.90;;;14.02;100.00;98065.75;5010278;28;20409;-74
2022/10/17 07:50:55;;;;;;;4.75;2.70;;;14.80;99.90;;;14.09;100.00;98067.13;5010230;28;20412;-74
2022/10/17 07:53:21;;;;;;;5.78;3.15;;;14.80;99.90;;;14.26;100.00;98072.31;5009667;28;20409;-73
2022/10/17 07:55:50;;;;;;;9.70;2.50;;;15.00;99.90;;;14.25;100.00;98070.69;5018753;28;20399;-74
2022/10/17 07:58:16;;;;;;;12.68;2.67;;;15.00;99.90;;;14.43;100.00;98070.31;5029685;28;20411;-76
2022/10/17 08:00:42;;;;;;;11.23;3.50;;;15.20;99.90;;;14.56;100.00;98077.81;5029637;28;20431;-76
2022/10/17 08:03:09;;;;;;;4.35;3.20;;;15.30;99.90;;;14.70;100.00;98078.16;5026586;28;20769;-74
2022/10/17 08:05:35;;;;;;;10.98;2.90;;;15.40;99.90;;;14.67;100.00;98073.31;5030179;28;20400;-73
2022/10/17 08:08:04;;;;;;;10.77;2.95;;;15.50;99.90;;;14.73;100.00;98083.75;5029630;28;20425;-76
2022/10/17 08:10:30;;;;;;;4.43;2.50;;;15.50;99.90;;;14.77;100.00;98077.91;5022239;28;20406;-80
2022/10/17 08:12:57;;;;;;;7.53;2.70;;;15.60;99.90;;;14.82;100.00;98075.25;5024792;28;20427;-75
2022/10/17 08:15:25;;;;;;;6.18;2.28;;;15.70;99.90;;;14.92;100.00;98080.63;5027790;28;20967;-75
2022/10/17 08:17:51;;;;;;;4.38;2.30;;;15.70;99.90;;;15.10;100.00;98080.97;5027202;28;20398;-75
2022/10/17 08:20:17;;;;;;;5.60;2.22;;;15.90;99.90;;;15.18;100.00;98079.66;5023887;28;20476;-75
2022/10/17 08:22:50;;;;;;;5.72;2.47;;;16.10;99.90;;;15.33;100.00;98077.03;5026656;28;20407;-76
2022/10/17 08:25:16;;;;;;;5.65;2.53;;;16.10;99.90;;;15.48;100.00;98074.38;5018344;28;20422;-75
2022/10/17 08:27:42;;;;;;;8.10;2.53;;;16.30;99.90;;;15.64;100.00;98079.72;5020506;28;20413;-76
2022/10/17 08:30:11;;;;;;;6.38;2.55;;;16.30;99.90;;;15.81;100.00;98086.41;5013817;28;20401;-76
2022/10/17 08:32:36;;;;;;;3.25;2.20;;;16.50;99.90;;;15.88;100.00;98091.47;5023374;28;20929;-76
2022/10/17 08:35:03;;;;;;;4.43;2.30;;;16.50;99.90;;;15.93;100.00;98096.03;5023254;28;20419;-75
2022/10/17 08:37:30;;;;;;;4.77;2.20;;;16.60;99.90;;;15.98;100.00;98094.16;5025247;28;20482;-75
2022/10/17 08:39:55;;;;;;;3.97;2.17;;;16.60;99.90;;;16.00;100.00;98088.56;5021116;28;20421;-75
2022/10/17 08:42:54;;;;;;;3.13;2.00;;;16.60;99.90;;;15.99;100.00;98089.63;5019141;28;20496;-76
2022/10/17 08:45:31;;;;;;;6.57;2.27;;;16.60;99.90;;;16.06;100.00;98092.81;5019973;28;20521;-75
2022/10/17 08:47:59;;;;;;;3.40;2.30;;;16.70;99.90;;;16.16;100.00;98096.25;5021768;28;20461;-75
2022/10/17 08:50:35;;;;;;;7.70;1.98;;;16.80;99.90;;;16.26;100.00;98092.78;5031257;28;20458;-76
2022/10/17 08:53:08;;;;;;;5.63;2.20;;;16.90;99.90;;;16.39;100.00;98099.44;5032347;28;20402;-75
2022/10/17 08:55:38;;;;;;;2.97;2.17;;;17.10;99.90;;;16.56;100.00;98094.56;5032620;28;20403;-76
2022/10/17 08:58:13;;;;;;;4.28;2.15;;;17.20;99.90;;;16.70;100.00;98095.63;5032967;28;20434;-76
2022/10/17 09:00:45;;;;;;;6.25;2.25;;;17.40;99.90;;;16.81;100.00;98101.75;5031673;28;20932;-76
2022/10/17 09:03:30;;;;;;;4.55;2.30;;;17.50;99.90;;;16.95;100.00;98095.53;5032676;28;20491;-76
2022/10/17 09:06:11;;;;;;;4.13;2.05;;;17.70;99.90;;;17.27;100.00;98094.31;5032373;28;20746;-76
2022/10/17 09:08:46;;;;;;;4.40;2.00;;;17.90;99.90;;;17.41;100.00;98082.69;5032834;28;20442;-76
2022/10/17 09:11:27;;;;;;;6.65;2.15;;;18.10;99.90;;;17.51;100.00;98087.19;5032781;28;20407;-76
2022/10/17 09:14:10;;;;;;;4.63;2.30;;;18.20;99.90;;;17.57;100.00;98091.44;5032378;28;20402;-76
2022/10/17 09:16:57;;;;;;;13.68;3.15;;;18.20;99.90;;;17.65;99.64;98092.75;5032525;28;20776;-77
2022/10/17 09:19:29;;;;;;;4.30;1.80;;;18.30;99.90;;;17.74;100.00;98091.84;5028392;28;20644;-76
2022/10/17 09:22:02;;;;;;;8.55;2.20;;;18.40;99.90;;;17.66;100.00;98087.13;5016787;28;20476;-76
2022/10/17 09:24:41;;;;;;;6.27;2.00;;;18.40;99.90;;;17.70;95.34;98092.69;5031425;28;20948;-77
2022/10/17 09:27:21;;;;;;;2.60;1.90;;;18.40;99.90;;;17.73;98.70;98097.50;5029569;28;20431;-77
2022/10/17 09:29:49;;;;;;;6.25;2.50;;;18.40;99.90;;;17.78;91.44;98090.22;5028699;28;20451;-77
2022/10/17 09:32:22;;;;;;;5.82;2.20;;;18.50;99.90;;;17.87;89.53;98092.31;5032204;28;20439;-76
2022/10/17 09:34:48;;;;;;;3.90;1.97;;;18.60;99.90;;;17.91;94.92;98094.13;5029565;28;20769;-76
2022/10/17 09:37:16;;;;;;;5.28;2.08;;;18.50;99.90;;;17.83;88.31;98093.94;5031989;28;20407;-78
2022/10/17 09:39:42;;;;;;;2.50;1.70;;;18.60;99.90;;;18.12;95.71;98094.75;5031871;28;20419;-78
2022/10/17 09:42:13;;;;;;;4.57;1.98;;;18.70;99.90;;;18.13;98.24;98097.16;5031872;28;20442;-78
2022/10/17 09:44:48;;;;;;;3.47;2.10;;;18.70;99.90;;;18.18;91.27;98089.09;5031612;28;20407;-78
2022/10/17 09:47:28;;;;;;;3.97;1.98;;;18.80;99.90;;;18.35;94.48;98101.22;5031583;28;20769;-77
2022/10/17 09:49:54;;;;;;;4.60;2.47;;;18.90;99.90;;;18.57;90.22;98098.09;5031861;28;20421;-78
2022/10/17 09:52:26;;;;;;;2.80;1.67;;;19.10;99.90;;;18.56;91.91;98089.25;5031185;28;20411;-77
2022/10/17 09:54:56;;;;;;;3.55;2.03;;;19.20;99.90;;;18.82;90.22;98095.91;5031385;28;20402;-77
2022/10/17 09:57:22;;;;;;;2.03;1.80;;;19.30;99.90;;;18.80;92.20;98097.28;5029161;28;20551;-76
2022/10/17 09:59:58;;;;;;;2.05;1.80;;;19.30;99.90;;;18.69;93.89;98095.81;5028302;28;20418;-77
2022/10/17 10:02:27;;;;;;;4.07;2.00;;;19.30;99.90;;;18.76;94.86;98096.25;5023373;28;20984;-76
2022/10/17 10:04:58;;;;;;;3.65;1.83;;;19.30;99.90;;;18.84;89.29;98091.06;5027344;28;20502;-75
2022/10/17 10:07:26;;;;;;;5.03;2.20;;;19.40;99.90;;;18.79;83.80;98088.47;5025624;28;20540;-74
2022/10/17 10:09:53;;;;;;;9.50;2.50;;;19.40;99.90;;;18.80;83.96;98097.28;5031212;28;20399;-75
2022/10/17 10:12:21;;;;;;;2.38;1.75;;;19.40;99.90;;;18.87;91.42;98095.03;5031748;28;20877;-75
2022/10/17 10:14:48;;;;;;;3.20;1.83;;;19.40;99.90;;;18.81;85.69;98094.31;5031245;28;20429;-74
2022/10/17 10:17:35;;;;;;;6.80;1.95;;;19.50;99.90;;;18.86;85.74;98093.47;5042937;22;20431;-73
2022/10/17 10:20:22;;;;;;;4.65;2.10;;;19.40;99.90;;;19.13;87.50;98103.59;5028658;28;20421;-74